Time;durP1;ratioP1;P1;durP2;ratioP2;P2;SDS_P1;SDS_P2;PMS_P1;PMS_P2;Temp;Humidity;BMP_temperature;BMP_pressure;BME280_temperature;BME280_humidity;BME280_pressure;Samples;Min_cycle;Max_cycle;Signal;HPM_P1;HPM_P2
2023/03/14 00:03:38;;;;;;;0.10;0.10;;;;;;;10.59;100.00;97930.28;12201219;19;20018;-82
2023/03/14 00:07:40;;;;;;;0.10;0.10;;;;;;;10.59;100.00;97922.00;12187636;19;20023;-82
2023/03/14 00:11:42;;;;;;;0.10;0.10;;;;;;;10.60;100.00;97931.94;12210625;19;20034;-82
2023/03/14 00:15:44;;;;;;;0.10;0.10;;;;;;;10.62;100.00;97925.03;12200147;19;20018;-82
2023/03/14 00:19:45;;;;;;;0.20;0.20;;;;;;;10.66;100.00;97939.00;12206348;19;20007;-82
2023/03/14 00:23:47;;;;;;;0.10;0.10;;;;;;;10.66;100.00;97928.81;12191705;19;20007;-82
2023/03/14 00:27:50;;;;;;;0.17;0.17;;;;;;;10.71;100.00;97919.66;12178253;19;20851;-82
2023/03/14 00:31:53;;;;;;;0.10;0.10;;;;;;;10.63;100.00;97914.81;12195873;19;20011;-82
2023/03/14 00:36:00;;;;;;;0.10;0.10;;;;;;;10.57;100.00;97914.06;12189711;19;20002;-83
2023/03/14 00:40:06;;;;;;;0.10;0.10;;;;;;;10.58;100.00;97912.94;12167907;19;21714;-82
2023/03/14 00:44:08;;;;;;;0.00;0.00;;;;;;;10.57;100.00;97897.53;12187930;19;20043;-81
2023/03/14 00:48:10;;;;;;;0.10;0.10;;;;;;;10.58;100.00;97901.09;12186370;19;20006;-81
2023/03/14 00:52:11;;;;;;;0.10;0.10;;;;;;;10.59;100.00;97880.69;12168565;19;20002;-81
2023/03/14 00:56:14;;;;;;;0.10;0.10;;;;;;;10.52;100.00;97870.06;12186621;19;21411;-82
2023/03/14 01:00:16;;;;;;;0.10;0.10;;;;;;;10.47;100.00;97868.22;12187856;19;20661;-81
2023/03/14 01:04:17;;;;;;;0.10;0.10;;;;;;;10.49;100.00;97889.94;12162315;19;20042;-81
2023/03/14 01:08:19;;;;;;;0.35;0.35;;;;;;;10.51;100.00;97886.91;12182639;19;20012;-80
2023/03/14 01:12:21;;;;;;;0.10;0.10;;;;;;;10.56;100.00;97893.16;12181396;19;20349;-82
2023/03/14 01:16:27;;;;;;;0.10;0.10;;;;;;;10.55;100.00;97901.69;12157091;19;20014;-81
2023/03/14 01:20:29;;;;;;;0.10;0.10;;;;;;;10.57;100.00;97899.47;12172791;19;20032;-80
2023/03/14 01:24:31;;;;;;;0.10;0.10;;;;;;;10.63;100.00;97898.28;12174606;19;20659;-80
2023/03/14 01:28:33;;;;;;;0.10;0.10;;;;;;;10.59;100.00;97877.94;12161318;19;20392;-81
2023/03/14 01:32:35;;;;;;;0.10;0.10;;;;;;;10.62;100.00;97875.44;12182334;19;21286;-82
2023/03/14 01:36:37;;;;;;;0.10;0.10;;;;;;;10.61;100.00;97865.53;12185075;19;19999;-82
2023/03/14 01:40:44;;;;;;;0.10;0.10;;;;;;;10.63;100.00;97845.97;12157328;19;20394;-81
2023/03/14 01:44:55;;;;;;;0.10;0.10;;;;;;;10.71;100.00;97856.31;12176754;19;20035;-82
2023/03/14 01:49:06;;;;;;;0.22;0.22;;;;;;;10.72;100.00;97841.41;12172751;19;20045;-82
2023/03/14 01:53:08;;;;;;;0.10;0.10;;;;;;;10.64;100.00;97836.56;12206472;19;20166;-81
2023/03/14 01:57:27;;;;;;;0.00;0.00;;;;;;;10.65;100.00;97828.03;12214752;19;20003;-81
2023/03/14 02:01:30;;;;;;;0.08;0.08;;;;;;;10.65;100.00;97824.44;12189115;19;19998;-81
2023/03/14 02:05:34;;;;;;;0.50;0.50;;;;;;;10.72;100.00;97811.09;12204886;19;20027;-81
2023/03/14 02:09:41;;;;;;;0.65;0.65;;;;;;;10.75;100.00;97813.25;12208788;19;20035;-81
2023/03/14 02:13:48;;;;;;;0.10;0.10;;;;;;;10.73;100.00;97798.97;12186396;19;20013;-81
2023/03/14 02:18:08;;;;;;;0.22;0.22;;;;;;;10.74;100.00;97803.38;12206780;19;20011;-81
2023/03/14 02:22:19;;;;;;;0.10;0.10;;;;;;;10.80;100.00;97798.59;12189866;19;20015;-81
2023/03/14 02:26:40;;;;;;;0.75;0.75;;;;;;;10.79;100.00;97789.50;12204761;19;20011;-80
2023/03/14 02:30:43;;;;;;;0.10;0.10;;;;;;;10.77;100.00;97793.66;12208599;19;20574;-81
2023/03/14 02:34:51;;;;;;;0.32;0.32;;;;;;;10.76;100.00;97781.84;12189507;19;20010;-81
2023/03/14 02:39:05;;;;;;;0.10;0.10;;;;;;;10.71;100.00;97780.00;12206475;19;20481;-81
2023/03/14 02:43:09;;;;;;;0.10;0.10;;;;;;;10.64;100.00;97779.53;12188901;19;20011;-80
2023/03/14 02:47:13;;;;;;;0.10;0.10;;;;;;;10.64;100.00;97773.22;12210268;19;20006;-80
2023/03/14 02:51:15;;;;;;;0.32;0.32;;;;;;;10.76;100.00;97759.78;12217867;19;20014;-81
2023/03/14 02:55:26;;;;;;;0.50;0.50;;;;;;;10.64;100.00;97753.94;12194346;19;20003;-80
2023/03/14 02:59:31;;;;;;;0.10;0.10;;;;;;;10.74;100.00;97759.31;12215248;19;20019;-80
2023/03/14 03:03:40;;;;;;;0.25;0.25;;;;;;;10.72;100.00;97770.59;12210954;19;20019;-81
2023/03/14 03:07:41;;;;;;;0.10;0.10;;;;;;;10.72;100.00;97769.78;12186882;19;20023;-81
2023/03/14 03:11:43;;;;;;;0.10;0.10;;;;;;;10.60;100.00;97781.28;12209161;19;20007;-80
2023/03/14 03:15:51;;;;;;;0.10;0.10;;;;;;;10.63;100.00;97760.56;12183588;19;20011;-80
2023/03/14 03:19:53;;;;;;;0.10;0.10;;;;;;;10.57;100.00;97746.06;12214413;19;20006;-81
2023/03/14 03:23:54;;;;;;;0.10;0.10;;;;;;;10.54;100.00;97745.84;12212804;19;20042;-81
2023/03/14 03:27:56;;;;;;;0.10;0.10;;;;;;;10.55;100.00;97725.44;12189037;19;20125;-81
2023/03/14 03:31:58;;;;;;;0.25;0.25;;;;;;;10.52;100.00;97731.56;12208149;19;20768;-80
2023/03/14 03:36:00;;;;;;;0.10;0.10;;;;;;;10.54;100.00;97732.09;12208327;19;20017;-82
2023/03/14 03:40:07;;;;;;;0.30;0.30;;;;;;;10.57;100.00;97723.22;12195971;19;20010;-82
2023/03/14 03:44:10;;;;;;;0.10;0.10;;;;;;;10.56;100.00;97710.56;12210068;19;20392;-83
2023/03/14 03:48:13;;;;;;;0.10;0.10;;;;;;;10.54;100.00;97721.06;12213722;19;20032;-82
2023/03/14 03:52:15;;;;;;;0.43;0.40;;;;;;;10.59;100.00;97708.03;12188687;19;20375;-82
2023/03/14 03:56:17;;;;;;;0.10;0.10;;;;;;;10.62;100.00;97717.59;12206122;19;20015;-82
2023/03/14 04:00:19;;;;;;;0.10;0.10;;;;;;;10.71;100.00;97702.88;12207625;19;20090;-82
2023/03/14 04:04:22;;;;;;;0.10;0.10;;;;;;;10.71;100.00;97704.81;12185705;19;20015;-82
2023/03/14 04:08:24;;;;;;;0.10;0.10;;;;;;;10.76;100.00;97712.16;12207462;19;20002;-82
2023/03/14 04:12:25;;;;;;;0.20;0.20;;;;;;;10.76;100.00;97706.63;12204222;19;20021;-82
2023/03/14 04:16:39;;;;;;;1.33;0.52;;;;;;;10.75;100.00;97705.81;12181392;19;20011;-82
2023/03/14 04:20:51;;;;;;;0.13;0.13;;;;;;;10.73;100.00;97691.53;12203585;19;20010;-81
2023/03/14 04:24:54;;;;;;;0.85;0.85;;;;;;;10.79;100.00;97704.09;12181863;19;20468;-82
2023/03/14 04:28:56;;;;;;;0.10;0.10;;;;;;;10.78;100.00;97707.16;12204985;19;20003;-82
2023/03/14 04:32:58;;;;;;;0.30;0.30;;;;;;;10.79;100.00;97703.28;12204036;19;20128;-82
2023/03/14 04:37:01;;;;;;;0.20;0.20;;;;;;;10.76;100.00;97688.16;12181312;19;20002;-82
2023/03/14 04:41:11;;;;;;;0.32;0.15;;;;;;;10.71;100.00;97685.53;12202596;19;20017;-82
2023/03/14 04:45:14;;;;;;;4.03;0.57;;;;;;;10.75;100.00;97681.03;12202841;19;20007;-82
2023/03/14 04:49:16;;;;;;;0.45;0.45;;;;;;;10.78;100.00;97679.63;12190274;19;20046;-82
2023/03/14 04:53:19;;;;;;;0.10;0.10;;;;;;;10.82;100.00;97669.63;12209543;19;20450;-82
2023/03/14 04:57:23;;;;;;;0.15;0.15;;;;;;;10.80;100.00;97658.91;12234524;19;20061;-83
2023/03/14 05:01:26;;;;;;;0.10;0.10;;;;;;;10.80;100.00;97669.13;12236169;19;20012;-82
2023/03/14 05:05:46;;;;;;;0.10;0.10;;;;;;;10.82;100.00;97664.91;12220223;19;20027;-82
2023/03/14 05:10:11;;;;;;;0.10;0.10;;;;;;;10.85;100.00;97636.75;12192947;19;20009;-82
2023/03/14 05:14:28;;;;;;;0.10;0.10;;;;;;;10.85;100.00;97620.22;12208972;19;20013;-83
2023/03/14 05:18:41;;;;;;;0.10;0.10;;;;;;;10.82;100.00;97625.53;12210159;19;20014;-83
2023/03/14 05:23:02;;;;;;;0.00;0.00;;;;;;;10.86;100.00;97632.09;12191552;19;20563;-82
2023/03/14 05:27:22;;;;;;;0.10;0.10;;;;;;;10.84;100.00;97621.34;12209683;19;20018;-82
2023/03/14 05:31:34;;;;;;;;;;;;;;;10.86;100.00;97640.34;12189020;19;20086;-83
2023/03/14 05:36:02;;;;;;;0.00;0.00;;;;;;;10.85;100.00;97631.25;12203798;19;19939;-82
2023/03/14 05:40:16;;;;;;;0.10;0.10;;;;;;;10.84;100.00;97629.63;12185419;19;20019;-82
2023/03/14 05:44:38;;;;;;;0.10;0.10;;;;;;;10.88;100.00;97632.56;12205433;19;20010;-82
2023/03/14 05:48:54;;;;;;;0.10;0.10;;;;;;;10.89;100.00;97637.81;12180881;19;20035;-82
2023/03/14 05:53:22;;;;;;;0.20;0.20;;;;;;;10.94;100.00;97628.59;12205011;19;20035;-81
2023/03/14 05:57:46;;;;;;;0.10;0.10;;;;;;;10.88;100.00;97627.88;12196374;19;20014;-81
2023/03/14 06:02:03;;;;;;;0.10;0.10;;;;;;;10.85;100.00;97628.50;12266678;19;19998;-81
2023/03/14 06:06:17;;;;;;;0.10;0.10;;;;;;;10.88;100.00;97636.16;12256452;19;20006;-80
2023/03/14 06:10:20;;;;;;;0.10;0.10;;;;;;;10.86;100.00;97624.63;12184192;19;20468;-81
2023/03/14 06:14:22;;;;;;;0.10;0.10;;;;;;;10.78;100.00;97630.84;12190554;19;20006;-80
2023/03/14 06:18:26;;;;;;;0.10;0.10;;;;;;;10.79;100.00;97632.47;12195238;19;20469;-80
2023/03/14 06:22:29;;;;;;;0.30;0.30;;;;;;;10.82;100.00;97631.84;12170745;19;20005;-80
2023/03/14 06:26:31;;;;;;;0.17;0.17;;;;;;;10.87;100.00;97634.53;12188757;19;20724;-80
2023/03/14 06:30:34;;;;;;;;;;;;;;;10.86;100.00;97638.41;12193002;19;20009;-80
2023/03/14 06:34:38;;;;;;;0.10;0.10;;;;;;;10.85;100.00;97617.47;12167693;19;20363;-81
2023/03/14 06:38:40;;;;;;;0.10;0.10;;;;;;;10.77;100.00;97620.97;12192465;19;20014;-81
2023/03/14 06:42:43;;;;;;;0.10;0.10;;;;;;;10.86;100.00;97615.56;12203096;19;20010;-81
2023/03/14 06:46:47;;;;;;;0.10;0.10;;;;;;;10.85;100.00;97602.88;12178639;19;20018;-81
2023/03/14 06:50:50;;;;;;;0.10;0.10;;;;;;;10.86;100.00;97612.81;12206658;19;20006;-81
2023/03/14 06:54:52;;;;;;;0.17;0.17;;;;;;;10.85;100.00;97609.22;12180098;19;20027;-81
2023/03/14 06:58:57;;;;;;;0.10;0.10;;;;;;;10.85;100.00;97611.16;12219782;19;20011;-80
2023/03/14 07:03:02;;;;;;;0.68;0.68;;;;;;;10.87;100.00;97609.72;12205527;19;20014;-80
2023/03/14 07:07:09;;;;;;;0.10;0.10;;;;;;;10.94;100.00;97612.88;12182910;19;20038;-80
2023/03/14 07:11:12;;;;;;;0.10;0.10;;;;;;;11.05;100.00;97616.25;12210178;19;20007;-81
2023/03/14 07:15:15;;;;;;;0.10;0.10;;;;;;;11.07;100.00;97604.94;12205876;19;20042;-81
2023/03/14 07:19:41;;;;;;;0.10;0.10;;;;;;;11.15;100.00;97617.97;12183899;19;20007;-80
2023/03/14 07:23:43;;;;;;;0.10;0.10;;;;;;;11.22;100.00;97623.91;12200676;19;20011;-82
2023/03/14 07:27:48;;;;;;;0.10;0.10;;;;;;;11.23;100.00;97625.53;12190601;19;20555;-81
2023/03/14 07:31:52;;;;;;;0.13;0.13;;;;;;;11.23;100.00;97630.25;12208103;19;20018;-81
2023/03/14 07:35:55;;;;;;;0.80;0.80;;;;;;;11.27;100.00;97629.31;12205533;19;20006;-80
2023/03/14 07:39:57;;;;;;;5.63;0.65;;;;;;;11.33;100.00;97639.13;12171677;19;20482;-86
2023/03/14 07:44:03;;;;;;;0.10;0.10;;;;;;;11.39;100.00;97628.78;12213615;19;20010;-80
2023/03/14 07:48:05;;;;;;;0.10;0.10;;;;;;;11.47;100.00;97638.28;12217075;19;21261;-81
2023/03/14 07:52:08;;;;;;;0.10;0.10;;;;;;;11.57;100.00;97643.56;12196618;19;20086;-80
2023/03/14 07:56:10;;;;;;;0.13;0.13;;;;;;;11.73;100.00;97642.13;12213055;19;20206;-82
2023/03/14 08:00:13;;;;;;;0.10;0.10;;;;;;;11.85;100.00;97647.13;12213319;19;20011;-80
2023/03/14 08:04:16;;;;;;;0.10;0.10;;;;;;;11.86;100.00;97643.22;12192825;19;20086;-80
2023/03/14 08:08:20;;;;;;;0.10;0.10;;;;;;;11.90;99.55;97654.47;12216417;19;20006;-80
2023/03/14 08:12:22;;;;;;;0.10;0.10;;;;;;;11.83;100.00;97650.16;12211567;19;20003;-80
2023/03/14 08:16:23;;;;;;;0.10;0.10;;;;;;;12.00;100.00;97635.72;12213277;19;20010;-80
2023/03/14 08:20:27;;;;;;;0.10;0.10;;;;;;;12.04;100.00;97650.53;12196959;19;20086;-80
2023/03/14 08:24:33;;;;;;;0.10;0.10;;;;;;;12.04;99.77;97649.72;12211852;19;20011;-79
2023/03/14 08:28:35;;;;;;;0.10;0.10;;;;;;;12.17;100.00;97635.06;12217371;19;20348;-80
2023/03/14 08:32:38;;;;;;;0.10;0.10;;;;;;;12.16;97.96;97644.44;12188054;19;20002;-80
2023/03/14 08:36:41;;;;;;;0.10;0.10;;;;;;;12.19;99.13;97635.53;12215007;19;20002;-80
2023/03/14 08:40:44;;;;;;;0.10;0.10;;;;;;;12.16;99.04;97630.66;12208343;19;20011;-79
2023/03/14 08:44:46;;;;;;;0.10;0.10;;;;;;;12.32;95.90;97626.38;12186749;19;20026;-80
2023/03/14 08:48:48;;;;;;;1.40;1.30;;;;;;;12.58;95.84;97622.97;12218565;19;20010;-80
2023/03/14 08:52:50;;;;;;;0.10;0.10;;;;;;;12.59;93.16;97624.59;12211250;19;20696;-82
2023/03/14 08:56:52;;;;;;;0.10;0.10;;;;;;;12.74;93.33;97639.97;12189252;19;20010;-80
2023/03/14 09:00:54;;;;;;;0.10;0.10;;;;;;;12.93;92.50;97643.31;12231597;19;20012;-80
2023/03/14 09:04:55;;;;;;;0.10;0.10;;;;;;;12.94;93.87;97644.16;12237167;19;20014;-80
2023/03/14 09:08:58;;;;;;;0.10;0.10;;;;;;;13.01;92.91;97661.06;12199162;19;20380;-80
2023/03/14 09:13:00;;;;;;;0.10;0.10;;;;;;;13.05;91.46;97662.06;12216407;19;20011;-83
2023/03/14 09:17:02;;;;;;;0.10;0.10;;;;;;;13.18;93.78;97660.34;12189818;19;20476;-80
2023/03/14 09:21:07;;;;;;;0.10;0.10;;;;;;;13.23;92.14;97658.22;12209789;19;20002;-80
2023/03/14 09:25:10;;;;;;;0.10;0.10;;;;;;;13.36;91.45;97659.28;12211117;19;20062;-80
2023/03/14 09:29:12;;;;;;;0.10;0.10;;;;;;;13.49;90.81;97654.78;12190017;19;20030;-80
2023/03/14 09:33:17;;;;;;;0.10;0.10;;;;;;;13.49;90.48;97654.78;12203517;19;20066;-83
2023/03/14 09:37:21;;;;;;;0.45;0.30;;;;;;;13.37;90.91;97654.56;12202146;19;20014;-80
2023/03/14 09:41:33;;;;;;;0.10;0.10;;;;;;;13.51;91.33;97646.97;12188519;19;20413;-80
2023/03/14 09:45:40;;;;;;;0.10;0.10;;;;;;;13.34;90.58;97653.25;12232863;19;20047;-80
2023/03/14 09:49:42;;;;;;;0.10;0.10;;;;;;;13.14;92.76;97660.16;12253845;19;19999;-81
2023/03/14 09:53:48;;;;;;;0.10;0.10;;;;;;;12.94;95.06;97655.19;12188918;19;20026;-81
2023/03/14 09:58:03;;;;;;;0.10;0.10;;;;;;;12.84;95.94;97663.75;12211414;19;20014;-81
2023/03/14 10:02:21;;;;;;;0.10;0.10;;;;;;;12.86;96.64;97669.78;12191529;19;20003;-80
2023/03/14 10:06:29;;;;;;;0.10;0.10;;;;;;;12.82;97.50;97658.56;12208479;19;20003;-80
2023/03/14 10:10:33;;;;;;;0.10;0.10;;;;;;;12.74;97.85;97662.88;12205376;19;20341;-80
2023/03/14 10:14:49;;;;;;;0.10;0.10;;;;;;;12.69;99.43;97651.16;12185912;19;20459;-81
2023/03/14 10:18:52;;;;;;;;;;;;;;;12.53;100.00;97656.25;12219750;19;20005;-81
2023/03/14 10:22:54;;;;;;;0.08;0.08;;;;;;;12.65;100.00;97650.97;12220606;19;19915;-80
2023/03/14 10:27:06;;;;;;;0.10;0.10;;;;;;;12.68;100.00;97649.53;12193349;19;20005;-79
2023/03/14 10:31:10;;;;;;;0.10;0.10;;;;;;;12.58;99.78;97653.34;12215836;19;20027;-80
2023/03/14 10:35:13;;;;;;;0.10;0.10;;;;;;;12.65;100.00;97639.09;12193580;19;20019;-81
2023/03/14 10:39:28;;;;;;;0.35;0.35;;;;;;;12.73;100.00;97638.31;12219418;19;20082;-81
2023/03/14 10:43:35;;;;;;;0.10;0.10;;;;;;;12.68;100.00;97636.53;12216439;19;20424;-81
2023/03/14 10:47:48;;;;;;;0.10;0.10;;;;;;;12.46;100.00;97631.84;12195514;19;20022;-79
2023/03/14 10:51:50;;;;;;;0.10;0.10;;;;;;;12.25;100.00;97639.81;12216935;19;21246;-80
2023/03/14 10:55:53;;;;;;;0.10;0.10;;;;;;;12.21;100.00;97641.56;12213395;19;20031;-80
2023/03/14 10:59:59;;;;;;;0.10;0.10;;;;;;;12.11;100.00;97639.06;12198782;19;20018;-81
2023/03/14 11:04:22;;;;;;;0.10;0.10;;;;;;;12.06;100.00;97640.00;12215315;19;20119;-81
2023/03/14 11:08:35;;;;;;;0.00;0.00;;;;;;;12.09;100.00;97646.84;12204967;19;20018;-81
2023/03/14 11:13:06;;;;;;;0.10;0.10;;;;;;;12.01;100.00;97650.34;12216868;19;20003;-81
2023/03/14 11:17:24;;;;;;;0.30;0.30;;;;;;;11.99;100.00;97644.34;12198205;19;20006;-82
2023/03/14 11:21:41;;;;;;;1.65;0.32;;;;;;;11.91;100.00;97650.59;12222291;19;20014;-81
2023/03/14 11:25:58;;;;;;;0.63;0.35;;;;;;;12.00;100.00;97668.84;12215991;19;20003;-80
2023/03/14 11:30:13;;;;;;;0.30;0.30;;;;;;;11.90;100.00;97668.25;12193050;19;20033;-80
2023/03/14 11:34:33;;;;;;;1.10;0.40;;;;;;;11.81;100.00;97671.75;12239728;19;20001;-82
2023/03/14 11:38:57;;;;;;;0.60;0.32;;;;;;;11.83;100.00;97666.72;12224697;19;20007;-80
2023/03/14 11:43:13;;;;;;;1.17;0.68;;;;;;;11.78;100.00;97668.78;12247536;19;20006;-82
2023/03/14 11:47:32;;;;;;;3.00;0.40;;;;;;;11.85;100.00;97674.72;12230956;19;20001;-81
2023/03/14 11:51:38;;;;;;;1.33;0.30;;;;;;;11.93;100.00;97673.16;12241498;19;20104;-80
2023/03/14 11:55:42;;;;;;;1.92;0.50;;;;;;;12.04;100.00;97680.06;12220115;19;20432;-79
2023/03/14 12:00:00;;;;;;;2.72;0.50;;;;;;;12.05;100.00;97678.97;12211196;19;20024;-81
2023/03/14 12:04:35;;;;;;;0.60;0.40;;;;;;;12.04;100.00;97688.34;12271342;19;20003;-81
2023/03/14 12:08:58;;;;;;;0.70;0.50;;;;;;;11.97;100.00;97713.63;12220922;19;20037;-80
2023/03/14 12:12:59;;;;;;;1.00;0.70;;;;;;;11.40;100.00;97760.03;12206585;19;20006;-79
2023/03/14 12:17:22;;;;;;;0.95;0.70;;;;;;;11.08;100.00;97802.25;12189518;19;20589;-80
2023/03/14 12:21:46;;;;;;;0.40;0.28;;;;;;;10.80;100.00;97815.13;12239663;19;20002;-81
2023/03/14 12:26:12;;;;;;;0.20;0.20;;;;;;;10.62;100.00;97847.91;12219013;19;20017;-81
2023/03/14 12:30:33;;;;;;;0.22;0.15;;;;;;;10.60;100.00;97877.66;12188247;19;20002;-78
2023/03/14 12:34:47;;;;;;;2.08;0.20;;;;;;;10.69;94.94;97902.59;12209321;19;20010;-81
2023/03/14 12:39:17;;;;;;;0.15;0.15;;;;;;;10.70;95.99;97905.06;12182209;19;20030;-80
2023/03/14 12:43:29;;;;;;;1.00;0.20;;;;;;;11.00;93.41;97936.03;12207896;19;20015;-83
2023/03/14 12:47:31;;;;;;;0.20;0.20;;;;;;;11.24;90.55;97935.94;12192012;19;20462;-80
2023/03/14 12:51:39;;;;;;;0.10;0.10;;;;;;;11.44;82.82;97962.38;12209957;19;20091;-81
2023/03/14 12:55:54;;;;;;;0.20;0.20;;;;;;;11.39;85.76;97966.06;12216276;19;20066;-80
2023/03/14 13:00:00;;;;;;;0.10;0.10;;;;;;;11.26;87.58;97983.34;12192335;19;20015;-81
2023/03/14 13:04:11;;;;;;;0.17;0.17;;;;;;;11.07;87.42;98007.34;12211454;19;20002;-81
2023/03/14 13:08:41;;;;;;;0.20;0.20;;;;;;;10.83;88.89;98016.47;12190368;19;20007;-80
2023/03/14 13:12:55;;;;;;;0.20;0.20;;;;;;;10.63;85.55;98042.34;12216223;19;20007;-82
2023/03/14 13:17:00;;;;;;;0.17;0.17;;;;;;;10.57;84.34;98070.22;12214010;19;20007;-83
2023/03/14 13:21:24;;;;;;;0.20;0.20;;;;;;;10.22;91.70;98077.72;12188259;19;20018;-81
2023/03/14 13:25:31;;;;;;;0.20;0.20;;;;;;;9.73;95.25;98086.94;12204132;19;20007;-82
2023/03/14 13:29:35;;;;;;;1.23;0.25;;;;;;;9.73;95.61;98103.44;12189650;19;20010;-82
2023/03/14 13:33:40;;;;;;;1.00;1.00;;;;;;;9.59;98.28;98108.75;12210884;19;20007;-83
2023/03/14 13:37:43;;;;;;;0.45;0.30;;;;;;;9.54;95.83;98133.53;12210481;19;20035;-81
2023/03/14 13:41:46;;;;;;;0.90;0.50;;;;;;;9.45;96.90;98149.78;12186103;19;20483;-84
2023/03/14 13:45:50;;;;;;;1.10;0.40;;;;;;;9.24;96.81;98165.56;12212437;19;20599;-79
2023/03/14 13:49:53;;;;;;;1.13;0.50;;;;;;;9.21;97.28;98168.88;12218992;19;20034;-81
2023/03/14 13:53:56;;;;;;;0.50;0.40;;;;;;;9.36;95.40;98173.47;12201018;19;20023;-80
2023/03/14 13:57:58;;;;;;;1.70;0.55;;;;;;;9.44;95.29;98203.16;12222725;19;20014;-83
2023/03/14 14:02:12;;;;;;;2.33;0.43;;;;;;;9.38;88.60;98219.94;12216994;19;20011;-80
2023/03/14 14:06:28;;;;;;;0.93;0.65;;;;;;;9.33;90.75;98245.50;12231912;19;20006;-84
2023/03/14 14:10:31;;;;;;;1.65;0.60;;;;;;;9.54;88.44;98257.25;12234995;19;20413;-83
2023/03/14 14:14:39;;;;;;;0.93;0.43;;;;;;;9.92;82.74;98250.22;12198851;19;20046;-83
2023/03/14 14:18:42;;;;;;;1.48;0.55;;;;;;;10.25;79.75;98269.81;12225690;19;20007;-83
2023/03/14 14:22:43;;;;;;;0.77;0.47;;;;;;;10.51;73.25;98286.22;12224325;19;20042;-82
2023/03/14 14:26:58;;;;;;;0.93;0.38;;;;;;;10.67;69.00;98279.47;12198916;19;20471;-81
2023/03/14 14:30:59;;;;;;;;;;;;;;;10.61;71.73;98308.16;12225723;19;20031;-81
2023/03/14 14:35:03;;;;;;;1.10;0.50;;;;;;;10.48;72.98;98321.47;12239831;19;19945;-85
2023/03/14 14:39:15;;;;;;;1.13;0.40;;;;;;;10.43;70.38;98351.78;12265827;19;20013;-83
2023/03/14 14:43:28;;;;;;;0.63;0.45;;;;;;;10.55;69.47;98350.63;12221373;19;21041;-82
2023/03/14 14:47:30;;;;;;;;;;;;;;;10.52;67.86;98351.19;12205674;19;20014;-81
2023/03/14 14:51:38;;;;;;;1.30;0.75;;;;;;;10.49;67.70;98366.34;12226479;19;19918;-83
2023/03/14 14:55:41;;;;;;;1.10;0.65;;;;;;;10.34;69.83;98386.53;12219485;19;20543;-84
2023/03/14 14:59:44;;;;;;;0.50;0.50;;;;;;;10.25;69.29;98389.03;12204834;19;20082;-81
2023/03/14 15:03:50;;;;;;;0.93;0.50;;;;;;;10.07;65.65;98400.66;12226653;19;20374;-81
2023/03/14 15:07:52;;;;;;;0.52;0.40;;;;;;;9.87;66.38;98417.22;12224118;19;20017;-83
2023/03/14 15:11:54;;;;;;;1.13;0.60;;;;;;;9.79;69.89;98413.16;12203442;19;20044;-81
2023/03/14 15:15:56;;;;;;;3.35;0.57;;;;;;;9.75;67.95;98434.84;12216515;19;20069;-83
2023/03/14 15:19:58;;;;;;;2.42;0.60;;;;;;;9.69;69.28;98435.16;12225192;19;20095;-83
2023/03/14 15:24:00;;;;;;;1.42;0.60;;;;;;;9.59;68.36;98427.75;12212664;19;20010;-80
2023/03/14 15:28:02;;;;;;;3.25;0.70;;;;;;;9.66;66.66;98432.97;12221944;19;20074;-81
2023/03/14 15:32:06;;;;;;;1.25;0.50;;;;;;;9.64;67.22;98437.91;12205757;19;20022;-82
2023/03/14 15:36:23;;;;;;;2.83;0.55;;;;;;;9.65;64.54;98456.91;12219743;19;20006;-82
2023/03/14 15:40:25;;;;;;;0.98;0.50;;;;;;;9.71;61.68;98477.78;12212598;19;20011;-83
2023/03/14 15:44:30;;;;;;;0.85;0.40;;;;;;;9.75;59.92;98478.88;12194546;19;20011;-81
2023/03/14 15:48:33;;;;;;;2.40;0.70;;;;;;;9.81;61.77;98476.94;12217793;19;20018;-81
2023/03/14 15:52:35;;;;;;;1.77;0.40;;;;;;;9.90;60.78;98490.97;12215356;19;20043;-83
2023/03/14 15:56:37;;;;;;;3.92;1.42;;;;;;;10.03;59.25;98532.50;12191844;19;20003;-80
2023/03/14 16:00:41;;;;;;;2.63;0.80;;;;;;;10.43;58.01;98514.25;12213805;19;20026;-83
2023/03/14 16:04:44;;;;;;;1.08;0.40;;;;;;;10.58;58.52;98524.41;12209579;19;20018;-83
2023/03/14 16:08:46;;;;;;;4.10;0.60;;;;;;;10.62;58.78;98530.16;12191097;19;20003;-81
2023/03/14 16:12:47;;;;;;;3.70;0.60;;;;;;;10.48;56.73;98536.28;12206784;19;20010;-81
2023/03/14 16:16:51;;;;;;;0.93;0.68;;;;;;;10.26;58.33;98539.38;12211907;19;20002;-82
2023/03/14 16:21:01;;;;;;;0.65;0.45;;;;;;;10.06;59.52;98541.31;12188742;19;20021;-85
2023/03/14 16:25:04;;;;;;;1.08;0.65;;;;;;;9.92;60.77;98546.56;12207140;19;20032;-81
2023/03/14 16:29:08;;;;;;;0.77;0.40;;;;;;;9.59;60.61;98538.59;12194347;19;20051;-80
2023/03/14 16:33:10;;;;;;;1.73;0.68;;;;;;;9.35;61.74;98551.22;12213112;19;20007;-83
2023/03/14 16:37:15;;;;;;;1.23;0.68;;;;;;;9.18;63.14;98548.69;12212108;19;20003;-83
2023/03/14 16:41:19;;;;;;;1.67;0.80;;;;;;;9.06;68.12;98559.94;12189596;19;20021;-81
2023/03/14 16:45:21;;;;;;;1.40;0.60;;;;;;;8.86;71.89;98565.34;12227176;19;20011;-82
2023/03/14 16:49:23;;;;;;;2.13;1.08;;;;;;;8.60;75.13;98573.50;12217418;19;20066;-82
2023/03/14 16:53:27;;;;;;;1.65;0.88;;;;;;;8.39;76.72;98588.22;12190383;19;20014;-81
2023/03/14 16:57:29;;;;;;;2.42;0.80;;;;;;;8.22;78.74;98593.84;12210925;19;20006;-82
2023/03/14 17:01:31;;;;;;;1.17;0.60;;;;;;;8.09;80.87;98610.75;12210132;19;20338;-82
2023/03/14 17:05:33;;;;;;;2.47;0.60;;;;;;;7.95;83.24;98621.34;12192662;19;20006;-82
2023/03/14 17:09:34;;;;;;;1.75;0.68;;;;;;;7.72;84.69;98631.56;12217892;19;20006;-82
2023/03/14 17:13:37;;;;;;;1.30;0.80;;;;;;;7.59;86.10;98640.22;12216844;19;20128;-83
2023/03/14 17:17:39;;;;;;;2.00;0.80;;;;;;;7.48;87.22;98647.50;12198422;19;20491;-82
2023/03/14 17:21:40;;;;;;;2.45;0.82;;;;;;;7.42;89.90;98681.44;12217285;19;20070;-81
2023/03/14 17:25:44;;;;;;;2.60;1.20;;;;;;;7.35;92.53;98700.00;12207839;19;20025;-83
2023/03/14 17:29:47;;;;;;;3.28;0.85;;;;;;;7.24;94.31;98725.59;12194435;19;20006;-82
2023/03/14 17:33:53;;;;;;;1.80;0.70;;;;;;;7.07;94.40;98725.66;12212400;19;20042;-84
2023/03/14 17:37:55;;;;;;;0.88;0.60;;;;;;;7.04;93.93;98734.38;12217429;19;20034;-82
2023/03/14 17:41:57;;;;;;;1.27;0.50;;;;;;;7.00;93.47;98741.47;12189684;19;20073;-83
2023/03/14 17:46:00;;;;;;;0.88;0.50;;;;;;;6.92;94.05;98745.44;12212759;19;20015;-82
2023/03/14 17:50:04;;;;;;;0.57;0.40;;;;;;;6.89;93.55;98765.13;12193206;19;20003;-82
2023/03/14 17:54:06;;;;;;;1.70;0.25;;;;;;;6.85;94.53;98767.53;12214818;19;20046;-82
2023/03/14 17:58:08;;;;;;;1.20;0.40;;;;;;;6.77;95.47;98761.66;12218889;19;20487;-82
2023/03/14 18:02:23;;;;;;;0.52;0.52;;;;;;;6.68;96.57;98777.66;12235385;19;20006;-82
2023/03/14 18:06:29;;;;;;;0.55;0.40;;;;;;;6.59;96.74;98779.16;12269876;19;20028;-82
2023/03/14 18:10:30;;;;;;;0.50;0.40;;;;;;;6.53;98.13;98793.84;12248833;19;20015;-81
2023/03/14 18:14:32;;;;;;;0.38;0.22;;;;;;;6.52;98.29;98789.47;12196645;19;20007;-82
2023/03/14 18:18:34;;;;;;;0.60;0.45;;;;;;;6.47;98.94;98814.00;12210939;19;20007;-82
2023/03/14 18:22:36;;;;;;;1.27;0.52;;;;;;;6.47;100.00;98824.94;12205239;19;20018;-82
2023/03/14 18:26:37;;;;;;;0.30;0.30;;;;;;;6.44;100.00;98848.16;12190024;19;20002;-84
2023/03/14 18:30:39;;;;;;;0.50;0.50;;;;;;;6.43;100.00;98862.94;12212211;19;20041;-81
2023/03/14 18:34:42;;;;;;;2.72;0.28;;;;;;;6.30;100.00;98872.25;12211076;19;20027;-82
2023/03/14 18:38:45;;;;;;;0.57;0.40;;;;;;;6.24;100.00;98897.84;12202351;19;20384;-81
2023/03/14 18:42:46;;;;;;;0.43;0.30;;;;;;;6.03;100.00;98910.28;12216858;19;20831;-81
2023/03/14 18:46:48;;;;;;;1.17;0.60;;;;;;;5.83;100.00;98923.50;12219462;19;20006;-83
2023/03/14 18:50:50;;;;;;;3.83;1.05;;;;;;;5.52;100.00;98928.31;12194331;19;20035;-83
2023/03/14 18:54:52;;;;;;;4.18;1.15;;;;;;;5.27;100.00;98931.28;12226639;19;20006;-85
2023/03/14 18:58:58;;;;;;;2.88;1.08;;;;;;;5.04;100.00;98948.47;12239584;19;20026;-84
2023/03/14 19:03:03;;;;;;;3.08;1.85;;;;;;;4.94;100.00;98951.78;12198342;19;20010;-85
2023/03/14 19:07:05;;;;;;;4.05;1.30;;;;;;;4.88;100.00;98960.91;12219753;19;20010;-85